Kernville, CA (93238)

3:54 PM PDT on July 25, 2016 (GMT -0700)
Bull Run Mouth | | Change Station

Elev 2726 ft 35.78 °N, 118.44 °W | Updated 36 seconds ago

Mostly Cloudy
Mostly Cloudy
102.6 °F
Feels Like 99 °F
N
1.0
Wind Variable Wind from NW

Today
High -- | Low -- °F
--% Chance of Precip.
Yesterday
High -- | Low -- °F
Precip. -- in
Pressure 29.78 in
Visibility 10.0 miles
Clouds Mostly Cloudy 20000 ft
Heat Index 99 °F
Dew Point 48 °F
Humidity 16%
Rainfall 0.00 in
Snow Depth Not available.
5:56 AM 8:03 PM
Waning Gibbous, 61% visible
METAR KNID 252156Z AUTO 18014G23KT 10SM BKN200 43/02 A2987 RMK AO2 PK WND 19030/2121 SLP082 FU BKN200 T04280017 $
Pressure 29.78 in
Visibility 10.0 miles
Clouds Mostly Cloudy 20000 ft
Heat Index 99 °F
Dew Point 48 °F
Humidity 16%
Rainfall 0.00 in
Snow Depth Not available.
5:56 AM 8:03 PM
Waning Gibbous, 61% visible
METAR KNID 252156Z AUTO 18014G23KT 10SM BKN200 43/02 A2987 RMK AO2 PK WND 19030/2121 SLP082 FU BKN200 T04280017 $

10-Day Weather Forecast

Almanac

Astronomy

Jul. 25, 2016 Rise Set
Actual Time
Civil Twilight
Nautical Twilight
Astronomical Twilight
Moon
Length of Visible Light
Length of Day
Tomorrow will be .
, % of the Moon is Illuminated

Today's Extremes

State Highs State Lows

Community

WunderPhotos

Upload Photos

1,927,436 photos uploaded!

WunderBlog® & News

Nearby

Air Quality

  Air Quality AQ Index Pollutant
Not available.

Snow Depth

Station Depth Elevation

Earthquake Activity

City Distance Mag. Time & Date
Minimum magnitude displayed is 2.5.

Coastal Water Temperatures

Place Temperature

Stations

Nearby Weather Stations

Station Location Temp. Windchill Dew Point Humidity Wind Precip. Elev Updated Type
                   

Watches & Warnings

There are currently no watches in effect.